createdAt,value
2022-09-02T00:01:22.343Z,2.90
2022-09-02T00:03:50.541Z,2.80
2022-09-02T00:06:18.830Z,2.35
2022-09-02T00:08:46.888Z,2.80
2022-09-02T00:11:16.093Z,2.88
2022-09-02T00:13:44.649Z,3.08
2022-09-02T00:16:12.614Z,2.50
2022-09-02T00:18:45.722Z,2.60
2022-09-02T00:21:14.209Z,3.05
2022-09-02T00:23:42.833Z,2.80
2022-09-02T00:26:11.119Z,2.92
2022-09-02T00:28:39.051Z,2.55
2022-09-02T00:31:08.295Z,2.80
2022-09-02T00:33:37.363Z,3.05
2022-09-02T00:36:05.421Z,2.33
2022-09-02T00:38:35.537Z,2.80
2022-09-02T00:41:05.771Z,2.80
2022-09-02T00:43:59.638Z,2.80
2022-09-02T00:46:28.294Z,3.05
2022-09-02T00:49:01.199Z,2.88
2022-09-02T00:51:31.253Z,2.83
2022-09-02T00:54:00.229Z,2.90
2022-09-02T00:56:30.007Z,3.15
2022-09-02T00:58:58.274Z,3.53
2022-09-02T01:01:27.175Z,3.00
2022-09-02T01:03:55.156Z,2.92
2022-09-02T01:06:24.364Z,2.90
2022-09-02T01:09:00.025Z,3.10
2022-09-02T01:11:36.929Z,3.10
2022-09-02T01:14:06.954Z,2.60
2022-09-02T01:16:44.628Z,3.08
2022-09-02T01:19:26.209Z,3.25
2022-09-02T01:21:54.415Z,3.10
2022-09-02T01:24:26.190Z,3.58
2022-09-02T01:26:54.496Z,3.33
2022-09-02T01:29:23.147Z,3.00
2022-09-02T01:31:51.398Z,2.92
2022-09-02T01:34:19.204Z,2.90
2022-09-02T01:36:47.031Z,3.00
2022-09-02T01:39:15.353Z,2.88
2022-09-02T01:41:43.579Z,3.58
2022-09-02T01:44:12.148Z,3.45
2022-09-02T01:46:40.662Z,3.05
2022-09-02T01:49:08.504Z,3.38
2022-09-02T01:51:37.073Z,2.92
2022-09-02T01:54:05.626Z,3.00
2022-09-02T01:56:33.352Z,3.22
2022-09-02T01:59:02.924Z,2.85
2022-09-02T02:01:30.651Z,3.13
2022-09-02T02:03:58.504Z,3.13
2022-09-02T02:06:26.213Z,3.13
2022-09-02T02:08:55.386Z,3.10
2022-09-02T02:11:25.156Z,3.10
2022-09-02T02:13:57.827Z,3.28
2022-09-02T02:16:25.643Z,2.63
2022-09-02T02:18:53.436Z,3.30
2022-09-02T02:21:21.039Z,2.85
2022-09-02T02:23:48.856Z,2.78
2022-09-02T02:26:16.870Z,2.92
2022-09-02T02:28:44.723Z,2.92
2022-09-02T02:31:12.579Z,3.00
2022-09-02T02:33:40.403Z,3.50
2022-09-02T02:36:08.384Z,3.03
2022-09-02T02:38:36.724Z,2.92
2022-09-02T02:41:06.228Z,3.33
2022-09-02T02:43:35.431Z,3.22
2022-09-02T02:46:03.280Z,3.13
2022-09-02T02:48:30.979Z,2.95
2022-09-02T02:50:58.685Z,3.40
2022-09-02T02:53:29.606Z,3.65
2022-09-02T02:55:58.023Z,2.90
2022-09-02T02:58:25.786Z,2.90
2022-09-02T03:00:54.690Z,3.35
2022-09-02T03:03:22.828Z,3.13
2022-09-02T03:05:54.303Z,3.10
2022-09-02T03:08:22.931Z,3.25
2022-09-02T03:10:54.195Z,3.58
2022-09-02T03:13:24.039Z,3.13
2022-09-02T03:15:52.188Z,3.38
2022-09-02T03:18:20.984Z,2.92
2022-09-02T03:20:50.607Z,3.47
2022-09-02T03:23:19.176Z,3.05
2022-09-02T03:25:49.745Z,3.40
2022-09-02T03:28:37.654Z,3.10
2022-09-02T03:31:07.734Z,3.17
2022-09-02T03:33:35.463Z,3.28
2022-09-02T03:36:04.214Z,3.25
2022-09-02T03:38:32.621Z,3.65
2022-09-02T03:41:00.242Z,2.90
2022-09-02T03:43:27.952Z,3.03
2022-09-02T03:45:56.570Z,3.35
2022-09-02T03:48:24.207Z,3.25
2022-09-02T03:50:51.958Z,3.47
2022-09-02T03:53:21.610Z,3.65
2022-09-02T03:55:55.039Z,3.47
2022-09-02T03:58:25.325Z,3.22
2022-09-02T04:00:54.819Z,3.40
2022-09-02T04:03:24.468Z,3.83
2022-09-02T04:05:52.518Z,3.33
2022-09-02T04:08:22.186Z,3.40
2022-09-02T04:10:50.862Z,3.78
2022-09-02T04:13:19.232Z,4.05
2022-09-02T04:15:49.355Z,4.03
2022-09-02T04:18:19.701Z,3.42
2022-09-02T04:20:47.360Z,3.90
2022-09-02T04:23:16.081Z,3.92
2022-09-02T04:25:45.707Z,4.10
2022-09-02T04:28:15.618Z,3.47
2022-09-02T04:30:43.887Z,4.28
2022-09-02T04:33:14.054Z,4.10
2022-09-02T04:35:42.987Z,4.05
2022-09-02T04:38:11.578Z,4.05
2022-09-02T04:40:42.818Z,3.65
2022-09-02T04:43:11.663Z,3.80
2022-09-02T04:45:43.536Z,4.00
2022-09-02T04:48:16.499Z,4.20
2022-09-02T04:50:45.671Z,3.80
2022-09-02T04:53:14.413Z,4.00
2022-09-02T04:55:43.639Z,4.28
2022-09-02T04:58:14.741Z,4.55
2022-09-02T05:00:43.265Z,4.45
2022-09-02T05:03:13.427Z,4.15
2022-09-02T05:05:43.622Z,4.40
2022-09-02T05:08:13.476Z,3.80
2022-09-02T05:10:43.718Z,4.15
2022-09-02T05:13:12.310Z,4.10
2022-09-02T05:15:40.927Z,4.90
2022-09-02T05:18:10.264Z,4.90
2022-09-02T05:20:39.966Z,4.68
2022-09-02T05:23:08.665Z,4.88
2022-09-02T05:25:37.600Z,4.35
2022-09-02T05:28:08.736Z,4.28
2022-09-02T05:30:39.066Z,4.53
2022-09-02T05:33:08.760Z,4.30
2022-09-02T05:35:45.554Z,4.63
2022-09-02T05:38:17.175Z,4.82
2022-09-02T05:40:47.104Z,4.93
2022-09-02T05:43:15.140Z,4.63
2022-09-02T05:45:43.550Z,4.40
2022-09-02T05:48:30.247Z,4.47
2022-09-02T05:50:58.715Z,5.10
2022-09-02T05:53:29.119Z,4.63
2022-09-02T05:55:57.187Z,4.45
2022-09-02T05:58:25.294Z,4.10
2022-09-02T06:00:54.509Z,4.60
2022-09-02T06:03:22.858Z,4.40
2022-09-02T06:05:55.417Z,4.40
2022-09-02T06:08:23.885Z,4.32
2022-09-02T06:10:51.603Z,4.18
2022-09-02T06:13:23.000Z,4.30
2022-09-02T06:15:53.551Z,4.30
2022-09-02T06:18:24.868Z,4.30
2022-09-02T06:20:55.706Z,3.80
2022-09-02T06:23:24.165Z,4.20
2022-09-02T06:25:53.303Z,4.03
2022-09-02T06:28:21.406Z,4.43
2022-09-02T06:30:50.451Z,4.07
2022-09-02T06:33:22.648Z,4.03
2022-09-02T06:35:52.012Z,4.18
2022-09-02T06:38:21.858Z,4.38
2022-09-02T06:40:52.200Z,3.92
2022-09-02T06:43:26.027Z,4.03
2022-09-02T06:46:06.933Z,4.05
2022-09-02T06:48:36.706Z,3.40
2022-09-02T06:51:07.165Z,3.97
2022-09-02T06:53:35.475Z,3.60
2022-09-02T06:56:07.611Z,3.97
2022-09-02T07:01:02.809Z,3.40
2022-09-02T07:04:03.243Z,2.90
2022-09-02T07:06:36.535Z,3.47
2022-09-02T07:09:06.440Z,3.60
2022-09-02T07:11:35.243Z,2.92
2022-09-02T07:14:03.207Z,2.75
2022-09-02T07:16:33.655Z,3.10
2022-09-02T07:19:02.563Z,2.55
2022-09-02T07:21:31.069Z,2.70
2022-09-02T07:23:59.656Z,2.90
2022-09-02T07:26:27.740Z,2.75
2022-09-02T07:28:55.908Z,2.67
2022-09-02T07:31:25.005Z,2.60
2022-09-02T07:33:58.663Z,2.55
2022-09-02T07:36:27.556Z,2.55
2022-09-02T07:38:57.502Z,2.80
2022-09-02T07:41:25.302Z,2.63
2022-09-02T07:43:56.316Z,2.60
2022-09-02T07:46:31.187Z,2.30
2022-09-02T07:49:05.715Z,2.65
2022-09-02T07:51:39.057Z,3.08
2022-09-02T07:54:06.945Z,2.50
2022-09-02T07:56:36.087Z,2.17
2022-09-02T07:59:04.202Z,2.40
2022-09-02T08:01:32.368Z,2.05
2022-09-02T08:04:02.734Z,2.00
2022-09-02T08:06:36.058Z,2.30
2022-09-02T08:09:11.250Z,2.00
2022-09-02T08:11:42.707Z,1.98
2022-09-02T08:14:11.900Z,1.88
2022-09-02T08:16:40.112Z,1.70
2022-09-02T08:19:08.474Z,1.77
2022-09-02T08:21:36.583Z,1.40
2022-09-02T08:24:05.396Z,1.75
2022-09-02T08:26:37.016Z,1.40
2022-09-02T08:29:12.403Z,1.80
2022-09-02T08:31:40.064Z,1.60
2022-09-02T08:34:07.853Z,1.88
2022-09-02T08:36:35.460Z,1.50
2022-09-02T08:39:04.790Z,1.42
2022-09-02T08:41:45.262Z,1.33
2022-09-02T08:44:16.009Z,1.30
2022-09-02T08:46:43.771Z,1.50
2022-09-02T08:49:26.146Z,1.10
2022-09-02T08:52:01.087Z,1.33
2022-09-02T08:54:32.483Z,1.58
2022-09-02T08:57:00.197Z,1.33
2022-09-02T08:59:29.107Z,1.30
2022-09-02T09:01:56.777Z,1.05
2022-09-02T09:04:47.274Z,1.20
2022-09-02T09:07:43.340Z,1.00
2022-09-02T09:10:22.953Z,1.10
2022-09-02T09:12:56.607Z,1.33
2022-09-02T09:15:24.213Z,1.25
2022-09-02T09:17:58.168Z,1.20
2022-09-02T09:20:26.896Z,1.55
2022-09-02T09:22:57.656Z,1.25
2022-09-02T09:25:29.687Z,1.10
2022-09-02T09:28:00.752Z,1.23
2022-09-02T09:30:29.145Z,1.10
2022-09-02T09:32:59.856Z,1.20
2022-09-02T09:35:28.972Z,1.20
2022-09-02T09:37:57.175Z,1.50
2022-09-02T09:40:30.460Z,1.33
2022-09-02T09:43:14.840Z,1.05
2022-09-02T09:45:47.368Z,1.75
2022-09-02T09:50:46.538Z,1.75
2022-09-02T09:53:24.986Z,1.30
2022-09-02T09:55:56.595Z,1.17
2022-09-02T09:58:26.978Z,1.30
2022-09-02T10:01:00.423Z,1.35
2022-09-02T10:03:33.056Z,1.10
2022-09-02T10:06:17.903Z,1.50
2022-09-02T10:08:58.616Z,1.20
2022-09-02T10:11:27.456Z,1.00
2022-09-02T10:14:00.045Z,1.15
2022-09-02T10:16:46.729Z,1.13
2022-09-02T10:19:17.293Z,0.95
2022-09-02T10:21:50.931Z,1.20
2022-09-02T10:24:31.942Z,1.00
2022-09-02T10:27:00.453Z,1.23
2022-09-02T10:29:34.221Z,1.05
2022-09-02T10:32:15.932Z,1.20
2022-09-02T10:34:46.654Z,1.02
2022-09-02T10:37:35.490Z,1.10
2022-09-02T10:40:13.986Z,1.00
2022-09-02T10:42:46.750Z,1.20
2022-09-02T10:45:24.306Z,1.02
2022-09-02T10:48:01.710Z,1.10
2022-09-02T10:50:29.262Z,0.80
2022-09-02T10:53:12.978Z,1.10
2022-09-02T10:55:57.107Z,1.00
2022-09-02T10:58:43.551Z,1.10
2022-09-02T11:01:16.237Z,1.10
2022-09-02T11:03:54.352Z,0.95
2022-09-02T11:06:26.237Z,1.02
2022-09-02T11:09:04.100Z,1.08
2022-09-02T11:11:37.590Z,0.80
2022-09-02T11:14:26.778Z,0.90
2022-09-02T11:17:02.772Z,1.10
2022-09-02T11:19:35.146Z,1.20
2022-09-02T11:24:45.851Z,1.00
2022-09-02T11:27:42.155Z,1.02
2022-09-02T11:30:10.974Z,0.88
2022-09-02T11:32:45.258Z,1.00
2022-09-02T11:35:22.602Z,1.00
2022-09-02T11:37:53.535Z,1.13
2022-09-02T11:40:39.522Z,0.90
2022-09-02T11:43:16.044Z,1.10
2022-09-02T11:46:14.314Z,0.85
2022-09-02T11:49:02.744Z,0.90
2022-09-02T11:51:42.424Z,0.93
2022-09-02T11:54:12.590Z,1.10
2022-09-02T11:56:48.359Z,1.13
2022-09-02T11:59:23.563Z,1.23
2022-09-02T12:01:53.679Z,1.08
2022-09-02T12:04:58.468Z,1.02
2022-09-02T12:07:14.531Z,0.90
2022-09-02T12:12:32.378Z,0.82
2022-09-02T12:15:00.158Z,0.80
2022-09-02T12:17:38.664Z,1.00
2022-09-02T12:20:08.976Z,1.00
2022-09-02T12:22:38.875Z,1.30
2022-09-02T12:25:27.303Z,1.20
2022-09-02T12:28:18.818Z,1.13
2022-09-02T12:31:10.308Z,1.00
2022-09-02T12:33:39.399Z,1.00
2022-09-02T12:36:08.220Z,0.80
2022-09-02T12:38:37.141Z,1.00
2022-09-02T12:41:04.755Z,0.90
2022-09-02T12:43:37.434Z,0.80
2022-09-02T12:46:25.931Z,0.98
2022-09-02T12:49:12.042Z,1.00
2022-09-02T12:51:57.451Z,1.13
2022-09-02T12:54:32.840Z,1.13
2022-09-02T12:57:00.646Z,1.30
2022-09-02T12:59:30.311Z,1.00
2022-09-02T13:02:17.011Z,0.90
2022-09-02T13:04:51.156Z,1.17
2022-09-02T13:07:21.601Z,1.00
2022-09-02T13:09:55.472Z,1.08
2022-09-02T13:12:26.381Z,1.13
2022-09-02T13:15:26.597Z,0.95
2022-09-02T13:18:03.078Z,0.85
2022-09-02T13:20:53.726Z,1.17
2022-09-02T13:23:42.160Z,1.00
2022-09-02T13:26:45.477Z,0.88
2022-09-02T13:29:30.909Z,1.10
2022-09-02T13:32:10.872Z,1.00
2022-09-02T13:34:42.376Z,1.00
2022-09-02T13:37:28.854Z,0.80
2022-09-02T13:39:57.141Z,0.90
2022-09-02T13:42:26.445Z,1.08
2022-09-02T13:45:17.079Z,0.95
2022-09-02T13:47:46.195Z,1.20
2022-09-02T13:50:15.751Z,1.02
2022-09-02T13:53:45.123Z,1.00
2022-09-02T13:55:32.549Z,1.10
2022-09-02T13:58:05.299Z,1.08
2022-09-02T14:00:38.381Z,0.98
2022-09-02T14:03:08.225Z,1.00
2022-09-02T14:05:36.979Z,1.17
2022-09-02T14:08:07.559Z,0.90
2022-09-02T14:10:36.158Z,1.02
2022-09-02T14:13:07.043Z,1.10
2022-09-02T14:18:11.386Z,0.85
2022-09-02T14:21:01.998Z,0.90
2022-09-02T14:23:33.447Z,1.00
2022-09-02T14:26:02.014Z,0.90
2022-09-02T14:28:30.763Z,1.02
2022-09-02T14:31:08.703Z,1.10
2022-09-02T14:33:39.512Z,1.00
2022-09-02T14:36:10.023Z,1.20
2022-09-02T14:38:58.018Z,1.20
2022-09-02T14:41:31.016Z,1.10
2022-09-02T14:43:59.708Z,1.02
2022-09-02T14:46:33.385Z,1.02
2022-09-02T14:49:08.834Z,0.75
2022-09-02T14:51:59.617Z,0.93
2022-09-02T14:54:53.632Z,1.13
2022-09-02T14:57:24.151Z,1.30
2022-09-02T14:59:53.068Z,1.10
2022-09-02T15:02:29.838Z,0.82
2022-09-02T15:05:02.013Z,1.05
2022-09-02T15:07:29.941Z,0.98
2022-09-02T15:09:57.676Z,0.80
2022-09-02T15:12:29.601Z,1.10
2022-09-02T15:14:57.594Z,1.27
2022-09-02T15:17:25.672Z,0.90
2022-09-02T15:19:53.308Z,1.00
2022-09-02T15:22:21.426Z,1.30
2022-09-02T15:24:49.262Z,1.13
2022-09-02T15:27:17.336Z,0.90
2022-09-02T15:29:49.185Z,0.98
2022-09-02T15:32:17.191Z,1.20
2022-09-02T15:34:45.082Z,0.95
2022-09-02T15:37:13.298Z,1.10
2022-09-02T15:39:41.314Z,0.80
2022-09-02T15:42:08.944Z,0.98
2022-09-02T15:44:36.686Z,1.00
2022-09-02T15:47:04.373Z,0.88
2022-09-02T15:49:31.999Z,1.17
2022-09-02T15:52:00.403Z,0.90
2022-09-02T15:54:28.029Z,0.90
2022-09-02T15:56:56.682Z,1.10
2022-09-02T15:59:24.299Z,1.40
2022-09-02T16:01:55.087Z,1.20
2022-09-02T16:04:23.323Z,1.40
2022-09-02T16:06:52.368Z,0.95
2022-09-02T16:09:20.470Z,1.20
2022-09-02T16:11:49.583Z,0.93
2022-09-02T16:14:20.709Z,1.20
2022-09-02T16:16:49.767Z,1.05
2022-09-02T16:19:22.238Z,1.05
2022-09-02T16:21:50.569Z,0.93
2022-09-02T16:24:19.917Z,1.00
2022-09-02T16:26:48.160Z,0.95
2022-09-02T16:29:19.519Z,1.35
2022-09-02T16:34:36.149Z,1.10
2022-09-02T16:37:03.981Z,0.80
2022-09-02T16:39:31.695Z,1.00
2022-09-02T16:42:04.079Z,1.10
2022-09-02T16:44:33.811Z,0.90
2022-09-02T16:47:01.451Z,0.80
2022-09-02T16:49:29.081Z,0.98
2022-09-02T16:51:58.479Z,0.85
2022-09-02T16:54:30.686Z,0.93
2022-09-02T16:57:00.441Z,0.90
2022-09-02T16:59:28.081Z,0.90
2022-09-02T17:01:55.721Z,1.00
2022-09-02T17:04:23.398Z,0.98
2022-09-02T17:06:51.107Z,1.20
2022-09-02T17:09:19.050Z,1.13
2022-09-02T17:11:46.667Z,1.17
2022-09-02T17:14:16.514Z,1.05
2022-09-02T17:16:48.658Z,1.08
2022-09-02T17:19:21.418Z,1.20
2022-09-02T17:21:50.784Z,1.00
2022-09-02T17:24:18.843Z,1.30
2022-09-02T17:26:47.828Z,1.50
2022-09-02T17:29:31.943Z,1.30
2022-09-02T17:32:04.625Z,1.13
2022-09-02T17:34:33.636Z,1.30
2022-09-02T17:37:01.317Z,1.17
2022-09-02T17:39:29.186Z,1.15
2022-09-02T17:41:59.647Z,1.10
2022-09-02T17:44:35.270Z,1.10
2022-09-02T17:47:05.795Z,1.50
2022-09-02T17:49:35.415Z,1.23
2022-09-02T17:52:05.361Z,1.10
2022-09-02T17:54:33.201Z,1.15
2022-09-02T17:57:00.864Z,1.20
2022-09-02T17:59:40.807Z,1.13
2022-09-02T18:02:26.993Z,1.50
2022-09-02T18:05:03.828Z,1.27
2022-09-02T18:07:37.146Z,1.17
2022-09-02T18:10:04.911Z,1.05
2022-09-02T18:12:34.045Z,1.10
2022-09-02T18:15:02.523Z,1.40
2022-09-02T18:17:37.116Z,1.10
2022-09-02T18:20:09.421Z,1.42
2022-09-02T18:22:55.768Z,1.80
2022-09-02T18:25:29.493Z,1.73
2022-09-02T18:28:04.456Z,1.55
2022-09-02T18:30:38.366Z,1.50
2022-09-02T18:33:12.463Z,1.77
2022-09-02T18:35:58.148Z,1.52
2022-09-02T18:38:29.256Z,1.77
2022-09-02T18:41:22.866Z,1.58
2022-09-02T18:44:01.005Z,1.85
2022-09-02T18:46:34.394Z,1.98
2022-09-02T18:49:03.809Z,1.80
2022-09-02T18:51:40.867Z,1.85
2022-09-02T18:54:37.962Z,1.90
2022-09-02T18:57:09.288Z,1.63
2022-09-02T18:59:40.928Z,1.80
2022-09-02T19:02:23.943Z,1.45
2022-09-02T19:04:51.635Z,1.70
2022-09-02T19:07:39.754Z,1.67
2022-09-02T19:10:08.946Z,2.03
2022-09-02T19:12:39.129Z,1.73
2022-09-02T19:15:10.906Z,1.38
2022-09-02T19:17:41.372Z,2.10
2022-09-02T19:20:09.338Z,1.58
2022-09-02T19:22:39.728Z,1.67
2022-09-02T19:25:18.337Z,1.75
2022-09-02T19:27:47.920Z,1.60
2022-09-02T19:30:18.680Z,1.77
2022-09-02T19:32:47.744Z,1.83
2022-09-02T19:35:17.170Z,1.77
2022-09-02T19:37:46.872Z,1.73
2022-09-02T19:40:17.082Z,1.70
2022-09-02T19:42:44.761Z,1.85
2022-09-02T19:45:16.154Z,1.70
2022-09-02T19:50:35.740Z,1.73
2022-09-02T19:53:03.340Z,1.88
2022-09-02T19:55:33.503Z,2.15
2022-09-02T19:58:01.187Z,1.85
2022-09-02T20:00:28.868Z,1.52
2022-09-02T20:02:56.657Z,1.67
2022-09-02T20:05:25.860Z,1.60
2022-09-02T20:07:54.867Z,2.05
2022-09-02T20:10:27.062Z,1.58
2022-09-02T20:12:55.875Z,1.83
2022-09-02T20:15:23.527Z,1.55
2022-09-02T20:17:51.138Z,1.55
2022-09-02T20:20:21.595Z,1.42
2022-09-02T20:22:54.599Z,1.60
2022-09-02T20:25:27.652Z,1.73
2022-09-02T20:28:02.104Z,1.35
2022-09-02T20:30:33.054Z,1.80
2022-09-02T20:33:03.609Z,1.50
2022-09-02T20:35:34.038Z,1.88
2022-09-02T20:38:11.657Z,1.80
2022-09-02T20:40:48.588Z,1.45
2022-09-02T20:43:35.347Z,1.40
2022-09-02T20:46:09.372Z,1.60
2022-09-02T20:48:55.999Z,1.35
2022-09-02T20:51:31.690Z,1.80
2022-09-02T20:54:07.447Z,1.52
2022-09-02T20:56:41.192Z,1.70
2022-09-02T20:59:17.752Z,1.88
2022-09-02T21:01:45.829Z,1.65
2022-09-02T21:04:13.430Z,1.80
2022-09-02T21:06:53.121Z,1.60
2022-09-02T21:09:35.856Z,1.40
2022-09-02T21:12:06.433Z,1.88
2022-09-02T21:14:42.374Z,1.50
2022-09-02T21:17:13.458Z,1.60
2022-09-02T21:19:45.115Z,1.60
2022-09-02T21:22:16.566Z,1.90
2022-09-02T21:24:51.823Z,1.55
2022-09-02T21:27:34.256Z,1.50
2022-09-02T21:30:09.706Z,1.50
2022-09-02T21:32:49.979Z,1.50
2022-09-02T21:35:36.037Z,1.50
2022-09-02T21:38:05.172Z,1.60
2022-09-02T21:40:45.258Z,1.83
2022-09-02T21:43:12.829Z,1.63
2022-09-02T21:46:03.600Z,2.08
2022-09-02T21:48:51.544Z,1.33
2022-09-02T21:51:23.654Z,1.77
2022-09-02T21:53:55.139Z,1.63
2022-09-02T21:56:32.267Z,1.75
2022-09-02T21:59:18.386Z,1.90
2022-09-02T22:02:01.154Z,1.63
2022-09-02T22:04:37.688Z,1.70
2022-09-02T22:07:13.971Z,2.10
2022-09-02T22:09:42.420Z,1.73
2022-09-02T22:12:14.519Z,1.77
2022-09-02T22:14:59.007Z,1.80
2022-09-02T22:17:26.892Z,1.92
2022-09-02T22:19:57.855Z,1.80
2022-09-02T22:22:29.900Z,1.77
2022-09-02T22:24:57.964Z,1.92
2022-09-02T22:27:30.270Z,2.20
2022-09-02T22:30:03.717Z,2.30
2022-09-02T22:32:35.644Z,1.98
2022-09-02T22:37:38.662Z,2.03
2022-09-02T22:40:12.437Z,2.00
2022-09-02T22:42:40.773Z,2.45
2022-09-02T22:45:32.134Z,1.92
2022-09-02T22:48:22.731Z,1.83
2022-09-02T22:51:16.065Z,2.00
2022-09-02T22:53:47.943Z,2.10
2022-09-02T22:56:17.816Z,1.90
2022-09-02T22:58:55.203Z,1.60
2022-09-02T23:01:33.919Z,1.80
2022-09-02T23:04:23.698Z,1.92
2022-09-02T23:06:58.169Z,1.90
2022-09-02T23:09:26.408Z,1.60
2022-09-02T23:12:00.790Z,1.70
2022-09-02T23:14:53.305Z,1.80
2022-09-02T23:17:41.244Z,2.03
2022-09-02T23:20:22.423Z,1.67
2022-09-02T23:23:10.428Z,1.80
2022-09-02T23:25:41.094Z,1.40
2022-09-02T23:28:15.098Z,1.50
2022-09-02T23:30:53.083Z,1.70
2022-09-02T23:33:43.783Z,2.10
2022-09-02T23:36:21.662Z,2.03
2022-09-02T23:38:58.009Z,1.80
2022-09-02T23:41:26.087Z,1.83
2022-09-02T23:43:53.718Z,2.10
2022-09-02T23:46:44.848Z,2.00
2022-09-02T23:49:14.884Z,1.58
2022-09-02T23:51:42.442Z,1.52
2022-09-02T23:54:34.237Z,1.85
2022-09-02T23:57:12.035Z,1.75
2022-09-02T23:59:50.268Z,1.60
